Terminal Aerodrome Forecast
Issued by NWS Burlington, VT

Home | Current Version | Previous Version | Text Only | Print | Product List | Glossary On
Versions: 1 2 3 4 5 6 7 8 9 10 11 12 13 14 15 16
000
FTUS41 KBTV 172300
TAFBTV
TAF
KBTV 172321Z 1800/1824 20005KT P6SM BKN070
     FM180700 30003KT P6SM VCSH OVC035
     FM181100 34006KT P6SM VCSH BKN025
     FM181400 34007KT P6SM BKN040
     FM181800 35008KT P6SM SCT040=

USA.gov is the U.S. government's official web portal to all federal, state and local government web resources and services.